createdAt,value
2022-08-31T00:01:09.051Z,6.00
2022-08-31T00:04:04.237Z,3.50
2022-08-31T00:06:39.617Z,3.80
2022-08-31T00:09:11.886Z,3.40
2022-08-31T00:11:42.551Z,5.50
2022-08-31T00:14:12.481Z,5.03
2022-08-31T00:16:46.455Z,3.75
2022-08-31T00:19:15.333Z,4.82
2022-08-31T00:21:44.880Z,3.50
2022-08-31T00:24:14.671Z,5.85
2022-08-31T00:26:43.897Z,4.95
2022-08-31T00:29:22.659Z,3.53
2022-08-31T00:31:53.551Z,5.38
2022-08-31T00:34:24.442Z,3.72
2022-08-31T00:36:55.734Z,4.63
2022-08-31T00:39:25.461Z,5.88
2022-08-31T00:42:02.717Z,4.78
2022-08-31T00:44:33.791Z,4.43
2022-08-31T00:47:05.806Z,4.30
2022-08-31T00:49:45.492Z,5.30
2022-08-31T00:52:23.137Z,4.20
2022-08-31T00:55:05.832Z,5.15
2022-08-31T00:57:37.557Z,6.90
2022-08-31T01:00:13.981Z,5.63
2022-08-31T01:02:42.871Z,3.88
2022-08-31T01:08:09.940Z,4.93
2022-08-31T01:10:45.394Z,3.90
2022-08-31T01:13:20.597Z,5.72
2022-08-31T01:15:57.929Z,4.65
2022-08-31T01:18:26.417Z,4.53
2022-08-31T01:21:25.259Z,4.82
2022-08-31T01:24:08.721Z,5.00
2022-08-31T01:26:38.927Z,4.13
2022-08-31T01:29:10.616Z,3.70
2022-08-31T01:31:48.754Z,4.20
2022-08-31T01:34:15.931Z,4.00
2022-08-31T01:36:45.098Z,3.80
2022-08-31T01:39:12.337Z,4.80
2022-08-31T01:41:43.681Z,4.55
2022-08-31T01:44:13.281Z,4.30
2022-08-31T01:46:40.581Z,6.70
2022-08-31T01:49:07.687Z,4.13
2022-08-31T01:51:35.577Z,4.20
2022-08-31T01:54:03.681Z,4.68
2022-08-31T01:56:44.019Z,5.85
2022-08-31T01:59:13.922Z,6.07
2022-08-31T02:01:45.198Z,4.45
2022-08-31T02:04:14.400Z,3.58
2022-08-31T02:06:44.019Z,4.53
2022-08-31T02:09:11.335Z,4.40
2022-08-31T02:11:38.587Z,5.85
2022-08-31T02:14:06.814Z,4.60
2022-08-31T02:16:34.346Z,6.38
2022-08-31T02:19:01.474Z,5.25
2022-08-31T02:21:28.546Z,6.70
2022-08-31T02:23:56.295Z,7.30
2022-08-31T02:26:23.537Z,3.70
2022-08-31T02:28:51.076Z,4.70
2022-08-31T02:31:18.717Z,4.97
2022-08-31T02:33:45.802Z,6.75
2022-08-31T02:36:13.146Z,4.22
2022-08-31T02:38:41.157Z,5.25
2022-08-31T02:41:09.596Z,4.10
2022-08-31T02:43:36.650Z,6.05
2022-08-31T02:46:03.838Z,3.85
2022-08-31T02:48:31.002Z,5.03
2022-08-31T02:51:07.201Z,6.03
2022-08-31T02:53:35.531Z,3.60
2022-08-31T02:56:03.728Z,4.68
2022-08-31T02:58:31.041Z,4.35
2022-08-31T03:00:59.518Z,5.40
2022-08-31T03:03:26.678Z,3.95
2022-08-31T03:05:53.711Z,4.78
2022-08-31T03:08:20.846Z,3.97
2022-08-31T03:10:47.984Z,4.45
2022-08-31T03:13:15.124Z,5.07
2022-08-31T03:15:44.048Z,4.18
2022-08-31T03:18:11.206Z,5.03
2022-08-31T03:20:38.958Z,5.32
2022-08-31T03:23:06.938Z,5.95
2022-08-31T03:25:34.258Z,7.18
2022-08-31T03:28:01.415Z,5.43
2022-08-31T03:30:29.822Z,5.30
2022-08-31T03:33:02.443Z,4.47
2022-08-31T03:35:32.778Z,5.80
2022-08-31T03:38:01.346Z,4.88
2022-08-31T03:40:28.653Z,4.10
2022-08-31T03:42:58.362Z,4.60
2022-08-31T03:45:25.596Z,4.47
2022-08-31T03:47:52.627Z,5.38
2022-08-31T03:50:19.898Z,4.53
2022-08-31T03:52:48.056Z,5.97
2022-08-31T03:55:15.083Z,5.07
2022-08-31T03:57:42.188Z,5.88
2022-08-31T04:00:10.812Z,5.30
2022-08-31T04:02:39.781Z,6.70
2022-08-31T04:07:53.977Z,6.32
2022-08-31T04:10:21.494Z,6.03
2022-08-31T04:12:48.837Z,6.85
2022-08-31T04:15:16.330Z,4.82
2022-08-31T04:17:45.867Z,5.00
2022-08-31T04:20:13.153Z,4.70
2022-08-31T04:22:40.327Z,7.07
2022-08-31T04:25:10.802Z,6.50
2022-08-31T04:27:40.777Z,3.90
2022-08-31T04:30:09.835Z,7.00
2022-08-31T04:32:37.537Z,6.40
2022-08-31T04:35:05.201Z,4.70
2022-08-31T04:37:32.284Z,5.55
2022-08-31T04:40:02.011Z,5.38
2022-08-31T04:42:30.677Z,6.28
2022-08-31T04:44:57.916Z,4.18
2022-08-31T04:47:25.102Z,4.40
2022-08-31T04:49:52.298Z,4.38
2022-08-31T04:52:19.417Z,6.32
2022-08-31T04:54:51.096Z,5.32
2022-08-31T04:57:18.166Z,4.85
2022-08-31T04:59:45.222Z,4.25
2022-08-31T05:02:12.579Z,4.88
2022-08-31T05:04:39.782Z,5.20
2022-08-31T05:07:06.934Z,5.60
2022-08-31T05:09:34.180Z,4.82
2022-08-31T05:12:01.307Z,3.85
2022-08-31T05:14:28.445Z,5.32
2022-08-31T05:16:56.086Z,4.03
2022-08-31T05:19:23.216Z,5.65
2022-08-31T05:21:50.277Z,5.25
2022-08-31T05:24:21.814Z,3.97
2022-08-31T05:26:52.833Z,5.70
2022-08-31T05:29:23.177Z,4.50
2022-08-31T05:31:52.582Z,4.57
2022-08-31T05:34:22.059Z,5.80
2022-08-31T05:36:57.196Z,4.10
2022-08-31T05:39:26.527Z,5.25
2022-08-31T05:41:54.616Z,6.53
2022-08-31T05:44:28.795Z,4.35
2022-08-31T05:47:01.221Z,5.32
2022-08-31T05:49:32.305Z,5.45
2022-08-31T05:52:00.842Z,7.20
2022-08-31T05:54:28.467Z,4.40
2022-08-31T05:57:01.000Z,4.40
2022-08-31T05:59:29.977Z,5.13
2022-08-31T06:01:57.325Z,4.57
2022-08-31T06:04:24.570Z,5.60
2022-08-31T06:06:52.537Z,5.25
2022-08-31T06:09:19.858Z,4.80
2022-08-31T06:11:47.444Z,5.13
2022-08-31T06:14:14.757Z,5.28
2022-08-31T06:16:44.579Z,5.85
2022-08-31T06:19:11.867Z,7.22
2022-08-31T06:21:50.159Z,7.32
2022-08-31T06:24:19.291Z,5.25
2022-08-31T06:26:56.783Z,5.88
2022-08-31T06:29:25.288Z,4.90
2022-08-31T06:31:52.494Z,5.90
2022-08-31T06:34:20.896Z,9.75
2022-08-31T06:36:48.735Z,6.20
2022-08-31T06:39:17.215Z,5.90
2022-08-31T06:41:44.318Z,6.82
2022-08-31T06:44:14.759Z,5.22
2022-08-31T06:46:44.772Z,7.03
2022-08-31T06:49:14.849Z,6.82
2022-08-31T06:51:42.041Z,5.88
2022-08-31T06:54:28.469Z,7.30
2022-08-31T06:56:58.649Z,7.78
2022-08-31T06:59:29.071Z,6.63
2022-08-31T07:01:58.810Z,6.85
2022-08-31T07:04:27.196Z,5.07
2022-08-31T07:06:54.757Z,9.93
2022-08-31T07:09:21.996Z,6.68
2022-08-31T07:11:52.330Z,6.03
2022-08-31T07:14:24.264Z,5.60
2022-08-31T07:16:53.477Z,8.05
2022-08-31T07:19:22.411Z,8.32
2022-08-31T07:21:52.819Z,9.45
2022-08-31T07:24:24.062Z,7.88
2022-08-31T07:26:54.611Z,7.32
2022-08-31T07:29:23.284Z,7.15
2022-08-31T07:31:50.766Z,8.75
2022-08-31T07:34:27.310Z,6.22
2022-08-31T07:37:15.661Z,5.55
2022-08-31T07:40:06.853Z,7.07
2022-08-31T07:42:38.941Z,8.05
2022-08-31T07:45:12.696Z,8.95
2022-08-31T07:47:45.526Z,6.93
2022-08-31T07:50:13.676Z,7.10
2022-08-31T07:52:54.668Z,10.13
2022-08-31T07:55:24.874Z,8.27
2022-08-31T07:57:54.944Z,6.95
2022-08-31T08:00:28.965Z,9.35
2022-08-31T08:02:57.088Z,13.18
2022-08-31T08:05:28.949Z,7.78
2022-08-31T08:08:09.310Z,7.90
2022-08-31T08:10:43.887Z,9.40
2022-08-31T08:13:16.297Z,6.95
2022-08-31T08:15:43.442Z,12.32
2022-08-31T08:18:12.402Z,7.93
2022-08-31T08:20:40.338Z,9.73
2022-08-31T08:23:14.379Z,7.30
2022-08-31T08:25:43.698Z,11.88
2022-08-31T08:31:06.327Z,10.23
2022-08-31T08:33:35.237Z,9.15
2022-08-31T08:36:07.942Z,7.97
2022-08-31T08:38:39.442Z,11.20
2022-08-31T08:41:13.174Z,8.00
2022-08-31T08:43:44.123Z,9.32
2022-08-31T08:46:34.364Z,7.07
2022-08-31T08:49:15.695Z,8.52
2022-08-31T08:51:44.010Z,6.25
2022-08-31T08:54:16.008Z,7.10
2022-08-31T08:56:47.914Z,7.88
2022-08-31T08:59:19.702Z,6.20
2022-08-31T09:01:51.201Z,6.07
2022-08-31T09:08:16.437Z,7.43
2022-08-31T09:11:06.612Z,5.00
2022-08-31T09:13:44.884Z,5.40
2022-08-31T09:16:22.228Z,6.65
2022-08-31T09:18:57.379Z,5.50
2022-08-31T09:21:29.725Z,6.78
2022-08-31T09:24:30.463Z,9.48
2022-08-31T09:27:18.837Z,6.90
2022-08-31T09:30:02.034Z,6.22
2022-08-31T09:32:32.970Z,8.05
2022-08-31T09:35:07.150Z,6.65
2022-08-31T09:37:48.695Z,5.70
2022-08-31T09:40:24.357Z,6.28
2022-08-31T09:43:08.559Z,5.10
2022-08-31T09:45:50.680Z,6.35
2022-08-31T09:48:58.625Z,5.25
2022-08-31T09:51:29.910Z,8.02
2022-08-31T09:54:45.986Z,4.38
2022-08-31T09:57:14.360Z,5.47
2022-08-31T10:02:37.070Z,4.97
2022-08-31T10:05:37.300Z,5.68
2022-08-31T10:08:19.746Z,4.90
2022-08-31T10:10:50.114Z,4.97
2022-08-31T10:13:43.630Z,5.40
2022-08-31T10:16:25.761Z,4.82
2022-08-31T10:19:11.964Z,5.53
2022-08-31T10:21:51.649Z,5.88
2022-08-31T10:24:28.686Z,5.82
2022-08-31T10:27:02.534Z,5.60
2022-08-31T10:29:54.786Z,4.53
2022-08-31T10:32:50.737Z,5.07
2022-08-31T10:35:37.837Z,6.10
2022-08-31T10:38:10.435Z,7.75
2022-08-31T10:41:10.176Z,4.30
2022-08-31T10:43:46.515Z,4.40
2022-08-31T10:46:15.765Z,4.28
2022-08-31T10:48:52.246Z,7.00
2022-08-31T10:51:23.679Z,4.07
2022-08-31T10:54:43.630Z,4.93
2022-08-31T10:57:42.125Z,5.85
2022-08-31T11:00:36.781Z,4.15
2022-08-31T11:03:21.753Z,6.05
2022-08-31T11:06:19.605Z,4.20
2022-08-31T11:09:03.600Z,4.65
2022-08-31T11:12:07.318Z,4.22
2022-08-31T11:14:53.540Z,5.03
2022-08-31T11:17:38.939Z,5.03
2022-08-31T11:20:24.599Z,7.40
2022-08-31T11:23:33.745Z,7.18
2022-08-31T11:26:32.306Z,4.13
2022-08-31T11:29:30.773Z,4.75
2022-08-31T11:32:21.958Z,4.60
2022-08-31T11:34:57.985Z,6.10
2022-08-31T11:37:51.039Z,5.97
2022-08-31T11:40:51.171Z,4.43
2022-08-31T11:43:34.064Z,4.80
2022-08-31T11:46:26.414Z,5.28
2022-08-31T11:48:54.621Z,5.07
2022-08-31T11:51:43.224Z,4.10
2022-08-31T11:54:42.209Z,4.38
2022-08-31T11:57:16.380Z,4.40
2022-08-31T11:59:48.570Z,4.55
2022-08-31T12:02:23.633Z,4.40
2022-08-31T12:07:47.825Z,4.75
2022-08-31T12:10:40.874Z,4.90
2022-08-31T12:13:34.316Z,4.72
2022-08-31T12:16:47.375Z,5.47
2022-08-31T12:20:02.132Z,5.72
2022-08-31T12:23:05.745Z,4.22
2022-08-31T12:25:55.627Z,4.28
2022-08-31T12:28:42.770Z,4.22
2022-08-31T12:31:19.869Z,5.90
2022-08-31T12:34:00.079Z,6.68
2022-08-31T12:36:32.365Z,3.85
2022-08-31T12:39:24.466Z,5.20
2022-08-31T12:42:04.165Z,5.40
2022-08-31T12:44:37.875Z,6.30
2022-08-31T12:47:39.946Z,6.03
2022-08-31T12:50:35.695Z,5.47
2022-08-31T12:53:17.596Z,5.10
2022-08-31T12:56:00.362Z,5.75
2022-08-31T13:01:50.499Z,5.97
2022-08-31T13:04:21.909Z,5.90
2022-08-31T13:09:35.084Z,7.07
2022-08-31T13:12:03.632Z,5.40
2022-08-31T13:14:43.779Z,7.03
2022-08-31T13:17:24.519Z,5.53
2022-08-31T13:19:59.070Z,6.10
2022-08-31T13:22:34.120Z,5.25
2022-08-31T13:25:41.967Z,5.07
2022-08-31T13:28:15.061Z,5.00
2022-08-31T13:30:55.363Z,4.95
2022-08-31T13:33:35.320Z,6.63
2022-08-31T13:36:14.915Z,8.00
2022-08-31T13:38:51.747Z,5.25
2022-08-31T13:41:36.631Z,5.60
2022-08-31T13:44:14.185Z,5.72
2022-08-31T13:46:55.021Z,5.65
2022-08-31T13:49:36.165Z,7.72
2022-08-31T13:52:22.169Z,6.22
2022-08-31T13:55:12.840Z,5.93
2022-08-31T13:57:42.265Z,6.55
2022-08-31T14:00:41.389Z,5.75
2022-08-31T14:03:33.250Z,5.93
2022-08-31T14:06:31.040Z,6.53
2022-08-31T14:09:26.600Z,5.85
2022-08-31T14:12:05.751Z,6.85
2022-08-31T14:14:43.770Z,5.93
2022-08-31T14:17:18.766Z,6.35
2022-08-31T14:19:46.187Z,8.05
2022-08-31T14:22:35.432Z,6.47
2022-08-31T14:25:05.138Z,5.78
2022-08-31T14:27:37.157Z,7.78
2022-08-31T14:30:17.215Z,7.68
2022-08-31T14:32:45.910Z,7.47
2022-08-31T14:35:15.314Z,5.70
2022-08-31T14:40:25.713Z,6.55
2022-08-31T14:42:53.195Z,5.85
2022-08-31T14:45:20.690Z,7.95
2022-08-31T14:47:54.531Z,6.88
2022-08-31T14:50:28.125Z,7.25
2022-08-31T14:52:59.458Z,7.18
2022-08-31T14:55:29.061Z,9.68
2022-08-31T14:58:11.418Z,7.65
2022-08-31T15:00:52.656Z,7.53
2022-08-31T15:03:29.600Z,7.50
2022-08-31T15:06:00.112Z,6.95
2022-08-31T15:08:37.853Z,6.78
2022-08-31T15:11:06.960Z,6.03
2022-08-31T15:13:43.810Z,6.65
2022-08-31T15:16:16.271Z,7.18
2022-08-31T15:18:44.916Z,6.60
2022-08-31T15:21:12.721Z,7.30
2022-08-31T15:23:48.500Z,6.20
2022-08-31T15:26:21.470Z,7.10
2022-08-31T15:28:52.702Z,7.15
2022-08-31T15:31:27.802Z,6.60
2022-08-31T15:33:57.626Z,7.93
2022-08-31T15:36:27.564Z,6.85
2022-08-31T15:38:57.765Z,6.85
2022-08-31T15:41:29.303Z,6.32
2022-08-31T15:43:56.750Z,8.10
2022-08-31T15:46:51.181Z,7.43
2022-08-31T15:49:18.265Z,8.95
2022-08-31T15:51:57.539Z,7.40
2022-08-31T15:54:27.394Z,7.68
2022-08-31T15:56:55.186Z,7.10
2022-08-31T15:59:25.382Z,7.82
2022-08-31T16:01:53.342Z,8.88
2022-08-31T16:04:23.800Z,9.00
2022-08-31T16:06:53.059Z,8.43
2022-08-31T16:09:21.611Z,7.93
2022-08-31T16:11:50.604Z,8.05
2022-08-31T16:14:18.949Z,7.93
2022-08-31T16:16:48.957Z,8.40
2022-08-31T16:19:34.230Z,7.38
2022-08-31T16:22:03.592Z,9.35
2022-08-31T16:24:37.439Z,9.15
2022-08-31T16:27:12.270Z,7.10
2022-08-31T16:29:43.444Z,9.27
2022-08-31T16:32:10.921Z,6.75
2022-08-31T16:34:39.851Z,9.50
2022-08-31T16:37:08.047Z,7.47
2022-08-31T16:39:42.335Z,6.78
2022-08-31T16:42:11.404Z,7.68
2022-08-31T16:44:40.080Z,6.35
2022-08-31T16:47:09.709Z,7.15
2022-08-31T16:49:39.039Z,7.72
2022-08-31T16:52:13.144Z,9.02
2022-08-31T16:54:45.199Z,6.38
2022-08-31T16:57:14.919Z,6.93
2022-08-31T16:59:42.839Z,6.95
2022-08-31T17:02:13.050Z,7.32
2022-08-31T17:07:26.960Z,6.75
2022-08-31T17:10:02.089Z,6.53
2022-08-31T17:12:29.489Z,6.43
2022-08-31T17:14:58.609Z,5.95
2022-08-31T17:17:26.917Z,6.57
2022-08-31T17:19:58.896Z,8.20
2022-08-31T17:22:32.504Z,6.38
2022-08-31T17:25:04.840Z,7.25
2022-08-31T17:27:34.747Z,5.85
2022-08-31T17:30:06.035Z,5.57
2022-08-31T17:32:39.287Z,8.13
2022-08-31T17:35:18.723Z,6.07
2022-08-31T17:37:47.697Z,6.35
2022-08-31T17:40:16.940Z,6.57
2022-08-31T17:42:44.701Z,7.28
2022-08-31T17:45:12.265Z,7.40
2022-08-31T17:47:39.545Z,5.82
2022-08-31T17:50:07.519Z,5.65
2022-08-31T17:52:35.074Z,6.07
2022-08-31T17:55:02.375Z,7.00
2022-08-31T17:57:30.111Z,7.53
2022-08-31T17:59:57.373Z,8.80
2022-08-31T18:02:32.783Z,7.15
2022-08-31T18:05:01.521Z,8.57
2022-08-31T18:07:29.339Z,6.35
2022-08-31T18:09:56.819Z,6.65
2022-08-31T18:12:26.007Z,7.43
2022-08-31T18:14:54.159Z,8.13
2022-08-31T18:17:24.050Z,6.38
2022-08-31T18:19:51.245Z,7.95
2022-08-31T18:22:20.023Z,7.95
2022-08-31T18:24:47.303Z,7.25
2022-08-31T18:27:15.646Z,7.28
2022-08-31T18:29:44.514Z,7.68
2022-08-31T18:32:12.659Z,7.15
2022-08-31T18:34:45.033Z,6.63
2022-08-31T18:37:13.369Z,9.60
2022-08-31T18:40:00.143Z,6.95
2022-08-31T18:42:47.361Z,6.38
2022-08-31T18:45:19.678Z,7.80
2022-08-31T18:50:47.626Z,7.50
2022-08-31T18:53:27.897Z,7.22
2022-08-31T18:55:56.389Z,6.22
2022-08-31T18:58:23.590Z,7.28
2022-08-31T19:00:57.772Z,7.50
2022-08-31T19:03:27.595Z,6.97
2022-08-31T19:05:56.812Z,6.68
2022-08-31T19:08:26.255Z,6.32
2022-08-31T19:10:54.484Z,5.93
2022-08-31T19:13:21.738Z,6.38
2022-08-31T19:15:49.074Z,6.80
2022-08-31T19:18:16.272Z,6.38
2022-08-31T19:20:43.512Z,6.07
2022-08-31T19:23:10.699Z,6.70
2022-08-31T19:25:43.136Z,6.45
2022-08-31T19:28:10.659Z,7.90
2022-08-31T19:30:38.517Z,6.90
2022-08-31T19:33:09.964Z,6.03
2022-08-31T19:35:38.725Z,6.97
2022-08-31T19:38:06.286Z,7.38
2022-08-31T19:40:39.370Z,7.38
2022-08-31T19:45:54.477Z,7.50
2022-08-31T19:48:23.930Z,8.02
2022-08-31T19:50:52.501Z,7.53
2022-08-31T19:53:21.542Z,8.82
2022-08-31T19:55:51.955Z,8.93
2022-08-31T19:58:25.812Z,7.18
2022-08-31T20:01:01.480Z,7.05
2022-08-31T20:03:32.114Z,7.40
2022-08-31T20:05:59.932Z,7.63
2022-08-31T20:08:27.239Z,8.93
2022-08-31T20:10:54.619Z,7.57
2022-08-31T20:13:28.495Z,7.10
2022-08-31T20:15:56.303Z,7.03
2022-08-31T20:18:26.730Z,8.10
2022-08-31T20:20:56.867Z,9.57
2022-08-31T20:23:24.360Z,7.68
2022-08-31T20:25:53.384Z,8.07
2022-08-31T20:28:25.670Z,7.78
2022-08-31T20:30:59.426Z,8.02
2022-08-31T20:33:27.965Z,7.75
2022-08-31T20:35:55.735Z,9.05
2022-08-31T20:38:22.900Z,7.65
2022-08-31T20:40:55.260Z,8.65
2022-08-31T20:43:23.675Z,8.32
2022-08-31T20:45:51.176Z,7.57
2022-08-31T20:48:37.079Z,9.07
2022-08-31T20:51:18.368Z,8.20
2022-08-31T20:53:46.169Z,9.25
2022-08-31T20:56:17.387Z,8.13
2022-08-31T20:58:46.240Z,11.05
2022-08-31T21:01:16.357Z,10.63
2022-08-31T21:03:44.129Z,9.15
2022-08-31T21:06:13.186Z,13.02
2022-08-31T21:08:42.791Z,9.82
2022-08-31T21:11:17.303Z,9.82
2022-08-31T21:13:46.684Z,10.85
2022-08-31T21:16:15.486Z,9.32
2022-08-31T21:18:42.731Z,9.07
2022-08-31T21:21:17.677Z,12.30
2022-08-31T21:23:47.244Z,10.77
2022-08-31T21:26:25.146Z,10.02
2022-08-31T21:29:00.710Z,9.05
2022-08-31T21:31:38.191Z,10.48
2022-08-31T21:34:23.319Z,10.73
2022-08-31T21:36:52.365Z,9.27
2022-08-31T21:39:24.027Z,9.95
2022-08-31T21:41:52.114Z,9.23
2022-08-31T21:44:40.590Z,9.60
2022-08-31T21:47:24.244Z,8.45
2022-08-31T21:49:53.684Z,8.98
2022-08-31T21:52:24.137Z,9.30
2022-08-31T21:54:55.786Z,8.75
2022-08-31T21:57:27.435Z,9.90
2022-08-31T21:59:56.026Z,9.55
2022-08-31T22:02:26.446Z,10.35
2022-08-31T22:04:55.170Z,10.40
2022-08-31T22:07:28.320Z,10.85
2022-08-31T22:09:57.385Z,12.07
2022-08-31T22:12:26.630Z,10.68
2022-08-31T22:14:55.063Z,10.88
2022-08-31T22:17:42.524Z,11.60
2022-08-31T22:20:17.680Z,10.68
2022-08-31T22:22:47.599Z,10.75
2022-08-31T22:25:16.283Z,11.07
2022-08-31T22:27:47.060Z,11.45
2022-08-31T22:30:17.590Z,11.02
2022-08-31T22:32:54.680Z,11.43
2022-08-31T22:35:23.204Z,11.90
2022-08-31T22:37:52.551Z,11.60
2022-08-31T22:40:25.140Z,10.82
2022-08-31T22:42:53.947Z,10.40
2022-08-31T22:45:24.260Z,11.45
2022-08-31T22:47:52.740Z,10.27
2022-08-31T22:50:23.234Z,9.60
2022-08-31T22:52:54.030Z,10.73
2022-08-31T22:55:22.790Z,10.93
2022-08-31T22:58:00.177Z,10.93
2022-08-31T23:00:39.550Z,10.00
2022-08-31T23:03:14.480Z,9.65
2022-08-31T23:05:51.080Z,9.35
2022-08-31T23:08:24.485Z,9.45
2022-08-31T23:10:55.270Z,9.50
2022-08-31T23:13:46.775Z,8.95
2022-08-31T23:16:20.092Z,9.98
2022-08-31T23:19:00.070Z,8.98
2022-08-31T23:21:31.925Z,9.27
2022-08-31T23:24:03.380Z,10.55
2022-08-31T23:26:33.731Z,10.38
2022-08-31T23:29:05.516Z,10.35
2022-08-31T23:31:34.631Z,9.45
2022-08-31T23:34:24.184Z,8.98
2022-08-31T23:36:54.604Z,9.25
2022-08-31T23:39:24.261Z,8.68
2022-08-31T23:41:54.319Z,11.32
2022-08-31T23:44:25.050Z,8.90
2022-08-31T23:46:52.280Z,8.30
2022-08-31T23:49:25.640Z,8.77
2022-08-31T23:51:56.745Z,8.55
2022-08-31T23:54:27.260Z,8.95
2022-08-31T23:56:58.400Z,8.13
2022-08-31T23:59:35.345Z,8.07
